Hlavní strana
METAR-TAF:

METAR-TAF

Letiště :

Peachtree City Airport (Falcon Field)

Atlanta, Georgie, Spojené státy americké

zeměpisná šířka: 33-21-19N, zeměpisná délka: 084-34-01W, výška: 246 m

Aktuální stav počasí

Zpráva byla vytvořena před 19 minutami, v 10:53 UTC
Bezvětří
Teplota 19°C
Vlhkost vzduchu 94%
Tlak 1022 hPa
Viditelnost: 8.0 km
Jasno
kouřmo

METAR: KFFC 261053Z AUTO 00000KT 5SM BR CLR 19/18 A3018 RMK AO2 SLP211 T01940183

Čas: 07:12 (11:12 UTC)


TAF: chybějící

Stav a předpovědi počasí z více než 4 000 letišť (zprávy METAR a TAF).

Červené a žluté tečky na mapě představují dostupné meteorologické stanice.

Když kurzor umístíte na tečku, zobrazí se název stanice.

Pak kliknutím zobrazíte stav a předpověď počasí.

Chcete-li změnit mapu, kliknutím na zelené tlačítko se znaménkem +mapu přiblížíte, kliknutím na zelené tlačítko se znaménkem – mapu oddálíte a kliknutím na zelené šipky přejdete na sousední mapy.


METAR-TAF: